Shalimar, FL (32579)

9:54 AM CST on February 08, 2016 (GMT -0600)
Summerwood - Shalimar | | Change Station
CLOSE
Current Station
Personal Weather Station
Location: Shalimar, FL
Elevation: 46 ft
Nearby Weather Stations
Active Advisory: Wind Advisory

Elev 46 ft 30.44 °N, 86.58 °W | Updated 15 seconds ago

Partly Cloudy
Partly Cloudy
59.9 °F
Feels Like 59.9 °F
N
1.1
Wind Variable Wind from SSW
Gusts 2.5 mph

Today
High -- | Low -- °F
--% Chance of Precip.
Yesterday
High -- | Low -- °F
Precip. -- in
Pressure 30.03 in
Visibility 10.0 miles
Clouds Few 2000 ft
Few 21000 ft
Dew Point 46 °F
Humidity 60%
Rainfall 0.00 in
Snow Depth Not available.
6:32 AM 5:28 PM
New Moon, 0% visible
METAR KVPS 081455Z 28011G21KT 10SM FEW020 FEW210 12/05 A3001 RMK AO2A SLP169 T01240047 56005 $
Pressure 30.03 in
Visibility 10.0 miles
Clouds Few 2000 ft
Few 21000 ft
Dew Point 46 °F
Humidity 60%
Rainfall 0.00 in
Snow Depth Not available.
6:32 AM 5:28 PM
New Moon, 0% visible
METAR KVPS 081455Z 28011G21KT 10SM FEW020 FEW210 12/05 A3001 RMK AO2A SLP169 T01240047 56005 $

10-Day Weather Forecast

Almanac

Astronomy

Feb. 08, 2016 Rise Set
Actual Time
Civil Twilight
Nautical Twilight
Astronomical Twilight
Moon
Length of Visible Light
Length of Day
Tomorrow will be .
, % of the Moon is Illuminated

Today's Extremes

State Highs State Lows

Community

WunderPhotos

Upload Photos

1,891,440 photos uploaded!

WunderBlog® & News

Nearby

Air Quality

  Air Quality AQ Index Pollutant
Not available.

Snow Depth

Station Depth Elevation

Earthquake Activity

City Distance Mag. Time & Date
Minimum magnitude displayed is 2.5.

Coastal Water Temperatures

Place Temperature

Stations

Nearby Weather Stations

Station Location Temp. Windchill Dew Point Humidity Wind Precip. Elev Updated Type
                   

Watches & Warnings

Wind Advisory
Issued: 6:27 AM CST Feb. 8, 2016 – National Weather Service

... Wind Advisory remains in effect from noon today to 6 am CST
Tuesday...

* timing... this afternoon through tonight.

* Winds... northwest and increasing to 25 to 30 mph with frequent
higher gusts in excess of 35 mph likely.

Precautionary/preparedness actions...

A Wind Advisory means that winds of 30 to 39 mph are expected.
Winds this strong can make driving difficult... especially for
high profile vehicles. Use extra caution.